createdAt,value
2019-06-10T00:01:08.640Z,100912.34
2019-06-10T00:03:38.571Z,100902.66
2019-06-10T00:06:11.605Z,100903.98
2019-06-10T00:08:41.366Z,100901.98
2019-06-10T00:11:11.837Z,100902.14
2019-06-10T00:13:41.613Z,100899.88
2019-06-10T00:16:11.831Z,100890.56
2019-06-10T00:18:42.934Z,100891.17
2019-06-10T00:21:12.971Z,100884.67
2019-06-10T00:23:42.613Z,100880.06
2019-06-10T00:26:12.763Z,100881.13
2019-06-10T00:28:42.499Z,100880.09
2019-06-10T00:31:12.070Z,100868.61
2019-06-10T00:33:41.660Z,100874.37
2019-06-10T00:36:13.655Z,100878.11
2019-06-10T00:38:43.265Z,100871.03
2019-06-10T00:41:14.146Z,100867.36
2019-06-10T00:43:43.931Z,100857.91
2019-06-10T00:46:13.665Z,100852.52
2019-06-10T00:48:43.306Z,100851.03
2019-06-10T00:51:13.307Z,100844.82
2019-06-10T00:53:42.996Z,100842.02
2019-06-10T00:56:14.340Z,100846.83
2019-06-10T00:58:44.179Z,100842.38
2019-06-10T01:01:14.659Z,100841.12
2019-06-10T01:03:44.403Z,100842.02
2019-06-10T01:06:15.074Z,100840.97
2019-06-10T01:08:44.866Z,100839.56
2019-06-10T01:11:21.556Z,100838.31
2019-06-10T01:13:45.757Z,100833.92
2019-06-10T01:16:15.629Z,100840.83
2019-06-10T01:18:45.279Z,100828.61
2019-06-10T01:21:15.508Z,100832.02
2019-06-10T01:23:45.200Z,100827.34
2019-06-10T01:26:16.391Z,100824.36
2019-06-10T01:28:46.233Z,100823.36
2019-06-10T01:31:20.694Z,100822.28
2019-06-10T01:33:47.159Z,100814.23
2019-06-10T01:36:18.097Z,100807.00
2019-06-10T01:38:50.937Z,100807.75
2019-06-10T01:41:21.449Z,100810.15
2019-06-10T01:43:51.516Z,100801.37
2019-06-10T01:46:21.408Z,100798.47
2019-06-10T01:48:52.112Z,100793.60
2019-06-10T01:51:21.892Z,100785.64
2019-06-10T01:53:51.720Z,100775.91
2019-06-10T01:56:21.764Z,100775.00
2019-06-10T01:58:51.588Z,100768.48
2019-06-10T02:01:23.590Z,100769.91
2019-06-10T02:03:53.464Z,100773.59
2019-06-10T02:06:25.790Z,100771.41
2019-06-10T02:08:56.197Z,100762.49
2019-06-10T02:11:25.764Z,100764.33
2019-06-10T02:13:55.359Z,100756.08
2019-06-10T02:16:25.012Z,100753.02
2019-06-10T02:19:00.546Z,100752.49
2019-06-10T02:21:25.858Z,100741.17
2019-06-10T02:23:55.522Z,100744.26
2019-06-10T02:26:25.086Z,100740.48
2019-06-10T02:28:54.841Z,100745.08
2019-06-10T02:31:30.531Z,100749.58
2019-06-10T02:33:55.688Z,100753.56
2019-06-10T02:36:31.299Z,100763.09
2019-06-10T02:38:56.548Z,100758.97
2019-06-10T02:41:31.881Z,100755.55
2019-06-10T02:43:57.421Z,100749.73
2019-06-10T02:46:31.083Z,100749.59
2019-06-10T02:49:17.589Z,100755.16
2019-06-10T02:51:31.439Z,100757.27
2019-06-10T02:54:04.772Z,100747.06
2019-06-10T02:56:36.356Z,100750.66
2019-06-10T02:59:04.226Z,100752.31
2019-06-10T03:01:37.902Z,100759.11
2019-06-10T03:04:05.219Z,100755.05
2019-06-10T03:06:39.821Z,100756.16
2019-06-10T03:09:07.075Z,100753.31
2019-06-10T03:11:37.567Z,100745.08
2019-06-10T03:14:07.350Z,100742.64
2019-06-10T03:16:44.446Z,100744.02
2019-06-10T03:19:14.027Z,100742.17
2019-06-10T03:21:43.926Z,100743.60
2019-06-10T03:24:13.514Z,100737.13
2019-06-10T03:26:43.140Z,100736.36
2019-06-10T03:29:13.065Z,100729.70
2019-06-10T03:31:47.736Z,100725.91
2019-06-10T03:34:14.827Z,100719.48
2019-06-10T03:36:45.205Z,100721.95
2019-06-10T03:39:16.160Z,100717.81
2019-06-10T03:41:45.726Z,100717.77
2019-06-10T03:44:15.320Z,100711.28
2019-06-10T03:46:44.882Z,100710.09
2019-06-10T03:49:14.832Z,100718.58
2019-06-10T03:51:44.426Z,100717.75
2019-06-10T03:54:14.002Z,100717.06
2019-06-10T03:56:43.563Z,100726.14
2019-06-10T03:59:13.208Z,100724.67
2019-06-10T04:01:42.883Z,100731.30
2019-06-10T04:04:13.050Z,100734.75
2019-06-10T04:06:44.285Z,100724.98
2019-06-10T04:09:14.132Z,100726.98
2019-06-10T04:11:43.694Z,100725.98
2019-06-10T04:14:13.278Z,100727.63
2019-06-10T04:16:43.467Z,100728.45
2019-06-10T04:19:13.390Z,100731.25
2019-06-10T04:21:43.462Z,100724.02
2019-06-10T04:24:13.082Z,100721.34
2019-06-10T04:26:43.573Z,100715.86
2019-06-10T04:29:13.227Z,100713.67
2019-06-10T04:31:42.781Z,100712.50
2019-06-10T04:34:12.625Z,100713.94
2019-06-10T04:36:42.556Z,100721.23
2019-06-10T04:39:12.690Z,100711.69
2019-06-10T04:41:42.782Z,100715.53
2019-06-10T04:44:13.169Z,100711.97
2019-06-10T04:46:43.039Z,100710.00
2019-06-10T04:49:13.242Z,100714.81
2019-06-10T04:51:43.416Z,100717.08
2019-06-10T04:54:13.579Z,100707.70
2019-06-10T04:56:43.223Z,100711.78
2019-06-10T04:59:12.801Z,100716.04
2019-06-10T05:01:42.832Z,100718.30
2019-06-10T05:04:12.745Z,100718.54
2019-06-10T05:06:42.494Z,100721.34
2019-06-10T05:09:12.532Z,100719.95
2019-06-10T05:11:43.174Z,100720.99
2019-06-10T05:14:13.410Z,100718.59
2019-06-10T05:16:44.026Z,100717.19
2019-06-10T05:19:13.612Z,100716.02
2019-06-10T05:21:43.201Z,100723.36
2019-06-10T05:24:12.786Z,100719.88
2019-06-10T05:26:42.779Z,100715.53
2019-06-10T05:29:12.379Z,100713.62
2019-06-10T05:31:43.581Z,100714.10
2019-06-10T05:34:13.368Z,100710.91
2019-06-10T05:36:43.750Z,100709.70
2019-06-10T05:39:13.463Z,100707.06
2019-06-10T05:41:43.379Z,100703.31
2019-06-10T05:44:13.620Z,100705.62
2019-06-10T05:46:43.746Z,100707.69
2019-06-10T05:49:13.322Z,100713.45
2019-06-10T05:51:42.995Z,100708.94
2019-06-10T05:54:13.015Z,100705.09
2019-06-10T05:56:43.318Z,100707.19
2019-06-10T05:59:15.702Z,100705.91
2019-06-10T06:01:45.287Z,100696.59
2019-06-10T06:04:14.855Z,100700.59
2019-06-10T06:06:45.190Z,100698.06
2019-06-10T06:09:14.873Z,100694.03
2019-06-10T06:11:44.431Z,100699.30
2019-06-10T06:14:14.007Z,100709.58
2019-06-10T06:16:43.682Z,100709.10
2019-06-10T06:19:13.251Z,100701.11
2019-06-10T06:21:47.614Z,100701.93
2019-06-10T06:24:14.201Z,100705.02
2019-06-10T06:26:43.814Z,100695.89
2019-06-10T06:29:13.391Z,100693.54
2019-06-10T06:31:43.227Z,100688.50
2019-06-10T06:34:13.751Z,100695.14
2019-06-10T06:36:43.687Z,100690.64
2019-06-10T06:39:13.321Z,100688.39
2019-06-10T06:41:43.142Z,100694.77
2019-06-10T06:44:13.147Z,100688.70
2019-06-10T06:46:43.235Z,100684.20
2019-06-10T06:49:13.095Z,100683.88
2019-06-10T06:51:54.592Z,100684.84
2019-06-10T06:54:13.875Z,100680.80
2019-06-10T06:56:43.947Z,100681.73
2019-06-10T06:59:13.599Z,100683.13
2019-06-10T07:01:44.533Z,100680.42
2019-06-10T07:04:14.627Z,100682.01
2019-06-10T07:06:44.980Z,100686.36
2019-06-10T07:09:16.280Z,100685.03
2019-06-10T07:11:47.698Z,100688.24
2019-06-10T07:14:19.287Z,100685.80
2019-06-10T07:16:48.874Z,100688.20
2019-06-10T07:19:18.704Z,100689.97
2019-06-10T07:22:07.599Z,100697.34
2019-06-10T07:24:19.622Z,100695.24
2019-06-10T07:26:52.123Z,100696.24
2019-06-10T07:29:22.579Z,100689.08
2019-06-10T07:31:53.602Z,100681.82
2019-06-10T07:34:26.693Z,100677.36
2019-06-10T07:36:56.730Z,100665.98
2019-06-10T07:39:26.305Z,100667.34
2019-06-10T07:41:55.968Z,100669.47
2019-06-10T07:44:25.555Z,100672.13
2019-06-10T07:46:55.128Z,100675.70
2019-06-10T07:49:24.766Z,100673.72
2019-06-10T07:51:54.349Z,100682.25
2019-06-10T07:54:23.916Z,100678.72
2019-06-10T07:56:53.859Z,100682.86
2019-06-10T07:59:23.493Z,100672.11
2019-06-10T08:01:55.125Z,100664.26
2019-06-10T08:04:24.460Z,100664.14
2019-06-10T08:06:54.106Z,100664.80
2019-06-10T08:09:23.681Z,100656.69
2019-06-10T08:11:53.448Z,100660.66
2019-06-10T08:14:22.999Z,100651.15
2019-06-10T08:16:53.283Z,100651.73
2019-06-10T08:19:34.434Z,100643.40
2019-06-10T08:21:54.737Z,100632.78
2019-06-10T08:24:24.725Z,100629.00
2019-06-10T08:26:54.437Z,100622.25
2019-06-10T08:29:24.000Z,100622.89
2019-06-10T08:31:53.807Z,100616.87
2019-06-10T08:34:23.491Z,100618.02
2019-06-10T08:36:54.355Z,100618.08
2019-06-10T08:39:24.107Z,100619.33
2019-06-10T08:41:53.770Z,100617.85
2019-06-10T08:44:23.341Z,100617.41
2019-06-10T08:46:53.008Z,100610.84
2019-06-10T08:49:23.872Z,100612.80
2019-06-10T08:51:54.275Z,100611.19
2019-06-10T08:54:23.827Z,100605.83
2019-06-10T08:56:54.239Z,100601.00
2019-06-10T08:59:23.884Z,100595.22
2019-06-10T09:01:56.847Z,100592.98
2019-06-10T09:04:24.886Z,100593.98
2019-06-10T09:06:54.475Z,100581.38
2019-06-10T09:09:26.978Z,100576.01
2019-06-10T09:11:56.573Z,100577.99
2019-06-10T09:14:26.946Z,100574.40
2019-06-10T09:16:56.669Z,100566.58
2019-06-10T09:19:26.252Z,100570.39
2019-06-10T09:21:56.592Z,100579.47
2019-06-10T09:24:26.389Z,100571.14
2019-06-10T09:26:55.971Z,100575.96
2019-06-10T09:29:25.641Z,100572.99
2019-06-10T09:31:55.794Z,100561.70
2019-06-10T09:34:25.710Z,100561.70
2019-06-10T09:36:56.928Z,100564.59
2019-06-10T09:39:26.699Z,100572.05
2019-06-10T09:42:02.171Z,100572.05
2019-06-10T09:44:27.658Z,100557.99
2019-06-10T09:47:00.350Z,100562.69
2019-06-10T09:49:33.067Z,100556.59
2019-06-10T09:52:03.302Z,100561.52
2019-06-10T09:54:33.793Z,100556.56
2019-06-10T09:57:03.488Z,100557.25
2019-06-10T09:59:33.218Z,100553.78
2019-06-10T10:02:06.311Z,100541.39
2019-06-10T10:04:37.381Z,100531.39
2019-06-10T10:07:05.481Z,100537.19
2019-06-10T10:09:37.071Z,100536.13
2019-06-10T10:12:06.473Z,100532.22
2019-06-10T10:14:36.075Z,100528.92
2019-06-10T10:17:05.845Z,100533.41
2019-06-10T10:19:35.531Z,100527.88
2019-06-10T10:22:05.314Z,100526.39
2019-06-10T10:24:34.885Z,100521.68
2019-06-10T10:27:08.392Z,100517.95
2019-06-10T10:29:35.811Z,100514.73
2019-06-10T10:32:05.461Z,100505.08
2019-06-10T10:34:35.121Z,100501.64
2019-06-10T10:37:04.701Z,100495.20
2019-06-10T10:39:34.260Z,100494.85
2019-06-10T10:42:04.044Z,100498.80
2019-06-10T10:44:33.669Z,100497.20
2019-06-10T10:47:03.814Z,100504.59
2019-06-10T10:49:33.587Z,100492.70
2019-06-10T10:52:04.120Z,100488.13
2019-06-10T10:54:36.659Z,100483.81
2019-06-10T10:57:05.054Z,100484.92
2019-06-10T10:59:34.783Z,100484.73
2019-06-10T11:02:04.548Z,100484.28
2019-06-10T11:04:35.197Z,100470.23
2019-06-10T11:07:04.769Z,100468.46
2019-06-10T11:09:34.371Z,100463.30
2019-06-10T11:12:04.608Z,100462.16
2019-06-10T11:14:34.509Z,100458.69
2019-06-10T11:17:04.246Z,100449.41
2019-06-10T11:19:34.066Z,100446.20
2019-06-10T11:22:03.691Z,100443.53
2019-06-10T11:24:40.636Z,100442.20
2019-06-10T11:27:04.608Z,100437.06
2019-06-10T11:29:34.274Z,100439.11
2019-06-10T11:32:04.279Z,100437.81
2019-06-10T11:34:33.955Z,100432.25
2019-06-10T11:37:03.585Z,100418.20
2019-06-10T11:39:36.614Z,100422.92
2019-06-10T11:42:04.774Z,100422.05
2019-06-10T11:44:34.356Z,100419.86
2019-06-10T11:47:04.571Z,100428.20
2019-06-10T11:49:34.231Z,100426.31
2019-06-10T11:52:03.814Z,100423.29
2019-06-10T11:54:47.825Z,100422.82
2019-06-10T11:57:04.732Z,100422.82
2019-06-10T11:59:34.319Z,100411.19
2019-06-10T12:02:05.955Z,100410.52
2019-06-10T12:04:35.397Z,100409.59
2019-06-10T12:07:05.031Z,100406.50
2019-06-10T12:09:34.625Z,100403.20
2019-06-10T12:12:04.262Z,100393.31
2019-06-10T12:14:34.248Z,100401.51
2019-06-10T12:17:39.964Z,100386.13
2019-06-10T12:19:35.580Z,100379.41
2019-06-10T12:22:07.518Z,100381.28
2019-06-10T12:24:36.679Z,100382.55
2019-06-10T12:27:06.252Z,100382.47
2019-06-10T12:29:35.857Z,100380.66
2019-06-10T12:32:07.305Z,100375.30
2019-06-10T12:34:37.338Z,100373.15
2019-06-10T12:37:11.304Z,100365.58
2019-06-10T12:39:38.385Z,100368.87
2019-06-10T12:42:11.097Z,100359.42
2019-06-10T12:44:39.516Z,100353.23
2019-06-10T12:47:09.165Z,100348.66
2019-06-10T12:49:38.940Z,100348.63
2019-06-10T12:52:08.503Z,100356.38
2019-06-10T12:54:38.087Z,100347.47
2019-06-10T12:57:07.746Z,100343.30
2019-06-10T12:59:37.335Z,100336.09
2019-06-10T13:02:19.059Z,100333.73
2019-06-10T13:04:39.706Z,100336.74
2019-06-10T13:07:12.575Z,100329.78
2019-06-10T13:09:43.966Z,100331.89
2019-06-10T13:12:13.652Z,100336.17
2019-06-10T13:14:43.710Z,100340.77
2019-06-10T13:17:13.395Z,100333.27
2019-06-10T13:19:43.365Z,100331.72
2019-06-10T13:22:13.016Z,100329.09
2019-06-10T13:24:42.679Z,100324.67
2019-06-10T13:27:12.721Z,100319.78
2019-06-10T13:29:43.098Z,100319.13
2019-06-10T13:32:13.428Z,100322.39
2019-06-10T13:34:43.221Z,100324.55
2019-06-10T13:37:16.218Z,100324.52
2019-06-10T13:39:45.151Z,100320.16
2019-06-10T13:42:14.828Z,100317.84
2019-06-10T13:44:44.463Z,100319.16
2019-06-10T13:47:14.967Z,100318.20
2019-06-10T13:49:44.775Z,100313.75
2019-06-10T13:52:16.816Z,100297.06
2019-06-10T13:54:46.200Z,100297.89
2019-06-10T13:57:16.031Z,100297.61
2019-06-10T13:59:46.568Z,100297.09
2019-06-10T14:02:16.508Z,100292.75
2019-06-10T14:04:46.099Z,100288.44
2019-06-10T14:07:17.399Z,100287.64
2019-06-10T14:09:47.015Z,100277.91
2019-06-10T14:12:17.530Z,100271.16
2019-06-10T14:14:47.467Z,100274.39
2019-06-10T14:17:19.411Z,100275.69
2019-06-10T14:19:48.367Z,100280.53
2019-06-10T14:22:17.942Z,100287.27
2019-06-10T14:24:47.521Z,100293.72
2019-06-10T14:27:21.164Z,100297.77
2019-06-10T14:29:48.525Z,100300.75
2019-06-10T14:32:18.101Z,100296.61
2019-06-10T14:34:47.694Z,100303.80
2019-06-10T14:37:32.308Z,100307.78
2019-06-10T14:39:48.691Z,100303.94
2019-06-10T14:42:18.271Z,100303.94
2019-06-10T14:44:47.882Z,100310.92
2019-06-10T14:47:17.472Z,100311.06
2019-06-10T14:49:47.199Z,100310.48
2019-06-10T14:52:17.046Z,100305.20
2019-06-10T14:54:46.631Z,100308.77
2019-06-10T14:57:16.834Z,100311.69
2019-06-10T14:59:46.453Z,100310.69
2019-06-10T15:02:17.370Z,100306.41
2019-06-10T15:04:47.103Z,100304.94
2019-06-10T15:07:16.758Z,100300.08
2019-06-10T15:09:46.325Z,100294.97
2019-06-10T15:12:17.436Z,100280.78
2019-06-10T15:14:47.244Z,100269.22
2019-06-10T15:17:16.954Z,100258.49
2019-06-10T15:19:46.587Z,100245.06
2019-06-10T15:22:17.020Z,100244.81
2019-06-10T15:24:46.581Z,100242.97
2019-06-10T15:27:24.762Z,100231.39
2019-06-10T15:29:47.504Z,100220.27
2019-06-10T15:32:28.677Z,100223.52
2019-06-10T15:34:48.357Z,100227.57
2019-06-10T15:37:19.361Z,100220.58
2019-06-10T15:39:49.199Z,100222.23
2019-06-10T15:42:19.730Z,100214.70
2019-06-10T15:44:55.141Z,100206.86
2019-06-10T15:47:26.413Z,100206.06
2019-06-10T15:49:52.621Z,100211.73
2019-06-10T15:52:24.963Z,100220.09
2019-06-10T15:54:53.414Z,100213.87
2019-06-10T15:57:38.878Z,100215.77
2019-06-10T15:59:54.288Z,100224.95
2019-06-10T16:02:25.567Z,100238.41
2019-06-10T16:04:55.274Z,100240.89
2019-06-10T16:07:25.584Z,100246.81
2019-06-10T16:09:55.395Z,100255.46
2019-06-10T16:12:26.920Z,100248.61
2019-06-10T16:14:56.629Z,100254.38
2019-06-10T16:17:26.202Z,100255.58
2019-06-10T16:19:55.785Z,100258.69
2019-06-10T16:22:26.298Z,100263.81
2019-06-10T16:24:56.011Z,100257.97
2019-06-10T16:27:43.534Z,100266.73
2019-06-10T16:29:56.898Z,100266.22
2019-06-10T16:32:26.611Z,100267.42
2019-06-10T16:34:56.171Z,100258.19
2019-06-10T16:37:27.017Z,100255.19
2019-06-10T16:39:56.740Z,100251.83
2019-06-10T16:42:27.473Z,100245.98
2019-06-10T16:44:57.265Z,100248.16
2019-06-10T16:47:27.419Z,100250.03
2019-06-10T16:49:57.098Z,100252.83
2019-06-10T16:52:27.534Z,100246.36
2019-06-10T16:54:57.247Z,100246.59
2019-06-10T16:57:27.297Z,100252.89
2019-06-10T16:59:56.952Z,100256.73
2019-06-10T17:02:26.931Z,100254.65
2019-06-10T17:04:58.501Z,100254.11
2019-06-10T17:07:29.166Z,100266.05
2019-06-10T17:09:58.929Z,100264.86
2019-06-10T17:12:28.492Z,100264.58
2019-06-10T17:14:58.148Z,100278.36
2019-06-10T17:17:28.642Z,100272.00
2019-06-10T17:19:59.055Z,100271.84
2019-06-10T17:22:30.237Z,100281.08
2019-06-10T17:24:59.940Z,100280.44
2019-06-10T17:27:29.693Z,100285.51
2019-06-10T17:29:59.800Z,100287.69
2019-06-10T17:32:30.260Z,100283.66
2019-06-10T17:35:02.165Z,100294.36
2019-06-10T17:37:33.646Z,100292.59
2019-06-10T17:40:02.747Z,100304.95
2019-06-10T17:42:38.002Z,100308.87
2019-06-10T17:45:04.419Z,100305.44
2019-06-10T17:47:34.639Z,100304.59
2019-06-10T17:50:07.298Z,100304.49
2019-06-10T17:52:38.880Z,100311.67
2019-06-10T17:55:09.000Z,100306.11
2019-06-10T17:57:38.737Z,100302.50
2019-06-10T18:00:12.199Z,100304.33
2019-06-10T18:02:42.601Z,100294.27
2019-06-10T18:05:13.506Z,100298.53
2019-06-10T18:07:43.179Z,100303.22
2019-06-10T18:10:14.640Z,100304.34
2019-06-10T18:12:44.275Z,100305.95
2019-06-10T18:15:15.968Z,100298.95
2019-06-10T18:17:45.624Z,100305.02
2019-06-10T18:20:15.972Z,100307.55
2019-06-10T18:22:45.564Z,100302.58
2019-06-10T18:25:15.298Z,100311.30
2019-06-10T18:27:45.162Z,100323.07
2019-06-10T18:30:15.686Z,100327.19
2019-06-10T18:32:45.386Z,100334.11
2019-06-10T18:35:15.841Z,100341.67
2019-06-10T18:37:45.511Z,100341.45
2019-06-10T18:40:15.548Z,100351.00
2019-06-10T18:42:45.604Z,100357.89
2019-06-10T18:45:15.638Z,100370.86
2019-06-10T18:47:45.222Z,100366.84
2019-06-10T18:50:16.377Z,100378.77
2019-06-10T18:52:46.487Z,100387.79
2019-06-10T18:55:17.441Z,100385.24
2019-06-10T18:57:47.109Z,100401.47
2019-06-10T19:00:18.469Z,100399.07
2019-06-10T19:02:48.223Z,100393.85
2019-06-10T19:05:18.613Z,100399.74
2019-06-10T19:07:48.316Z,100399.83
2019-06-10T19:10:19.692Z,100400.14
2019-06-10T19:12:49.260Z,100399.73
2019-06-10T19:15:19.072Z,100386.27
2019-06-10T19:17:48.684Z,100393.56
2019-06-10T19:20:18.983Z,100389.20
2019-06-10T19:22:48.572Z,100386.59
2019-06-10T19:25:18.540Z,100391.56
2019-06-10T19:27:48.142Z,100391.34
2019-06-10T19:30:18.957Z,100392.38
2019-06-10T19:32:48.561Z,100410.09
2019-06-10T19:35:18.371Z,100410.59
2019-06-10T19:37:48.094Z,100415.47
2019-06-10T19:40:18.794Z,100408.83
2019-06-10T19:42:48.408Z,100405.06
2019-06-10T19:45:18.101Z,100404.31
2019-06-10T19:47:47.682Z,100413.20
2019-06-10T19:50:17.435Z,100417.06
2019-06-10T19:52:46.991Z,100419.78
2019-06-10T19:55:16.699Z,100412.73
2019-06-10T19:57:46.285Z,100412.45
2019-06-10T20:00:17.590Z,100407.05
2019-06-10T20:02:47.169Z,100413.63
2019-06-10T20:05:20.101Z,100418.80
2019-06-10T20:07:52.757Z,100402.81
2019-06-10T20:10:23.073Z,100428.67
2019-06-10T20:12:53.640Z,100427.55
2019-06-10T20:15:26.489Z,100430.06
2019-06-10T20:17:56.047Z,100425.44
2019-06-10T20:20:25.771Z,100441.83
2019-06-10T20:22:57.523Z,100440.17
2019-06-10T20:25:26.627Z,100423.17
2019-06-10T20:27:56.274Z,100422.00
2019-06-10T20:30:29.017Z,100423.92
2019-06-10T20:32:57.514Z,100423.92
2019-06-10T20:35:27.131Z,100422.67
2019-06-10T20:37:56.885Z,100426.55
2019-06-10T20:40:26.454Z,100433.29
2019-06-10T20:42:56.218Z,100446.06
2019-06-10T20:45:25.856Z,100451.08
2019-06-10T20:47:55.519Z,100455.98
2019-06-10T20:50:25.272Z,100450.17
2019-06-10T20:52:55.024Z,100443.91
2019-06-10T20:55:37.625Z,100442.09
2019-06-10T20:58:03.515Z,100440.65
2019-06-10T21:00:36.923Z,100447.11
2019-06-10T21:03:07.058Z,100446.14
2019-06-10T21:05:36.768Z,100450.09
2019-06-10T21:08:07.123Z,100452.91
2019-06-10T21:10:37.622Z,100453.34
2019-06-10T21:13:07.527Z,100447.19
2019-06-10T21:15:37.576Z,100448.64
2019-06-10T21:18:07.225Z,100439.20
2019-06-10T21:20:36.968Z,100442.60
2019-06-10T21:23:06.621Z,100438.61
2019-06-10T21:25:36.280Z,100434.41
2019-06-10T21:28:05.856Z,100428.09
2019-06-10T21:30:41.695Z,100431.46
2019-06-10T21:33:06.916Z,100427.86
2019-06-10T21:35:36.482Z,100424.19
2019-06-10T21:38:06.117Z,100425.43
2019-06-10T21:40:35.696Z,100428.53
2019-06-10T21:43:05.342Z,100423.61
2019-06-10T21:45:34.926Z,100420.75
2019-06-10T21:48:04.926Z,100419.42
2019-06-10T21:50:34.589Z,100419.91
2019-06-10T21:53:04.488Z,100425.75
2019-06-10T21:55:34.166Z,100427.31
2019-06-10T21:58:04.101Z,100426.89
2019-06-10T22:00:52.038Z,100425.98
2019-06-10T22:03:07.968Z,100424.41
2019-06-10T22:05:37.699Z,100422.16
2019-06-10T22:08:07.345Z,100419.11
2019-06-10T22:10:37.013Z,100415.30
2019-06-10T22:13:06.718Z,100420.71
2019-06-10T22:15:36.375Z,100422.17
2019-06-10T22:18:05.933Z,100425.86
2019-06-10T22:20:35.518Z,100429.71
2019-06-10T22:23:05.172Z,100420.81
2019-06-10T22:25:34.744Z,100426.84
2019-06-10T22:28:04.644Z,100429.31
2019-06-10T22:30:34.253Z,100433.30
2019-06-10T22:33:03.965Z,100436.28
2019-06-10T22:35:33.682Z,100441.18
2019-06-10T22:38:03.282Z,100451.64
2019-06-10T22:40:32.941Z,100453.37
2019-06-10T22:43:03.188Z,100454.50
2019-06-10T22:45:33.016Z,100450.91
2019-06-10T22:48:03.170Z,100462.08
2019-06-10T22:50:32.841Z,100468.42
2019-06-10T22:53:03.843Z,100460.63
2019-06-10T22:55:33.731Z,100472.23
2019-06-10T22:58:06.291Z,100476.12
2019-06-10T23:00:34.645Z,100475.30
2019-06-10T23:03:04.298Z,100485.15
2019-06-10T23:05:33.956Z,100478.79
2019-06-10T23:08:03.655Z,100475.67
2019-06-10T23:10:33.793Z,100468.22
2019-06-10T23:13:03.373Z,100471.08
2019-06-10T23:15:33.130Z,100467.64
2019-06-10T23:18:03.327Z,100475.30
2019-06-10T23:20:33.300Z,100483.91
2019-06-10T23:25:42.717Z,100486.58
2019-06-10T23:28:13.465Z,100481.95
2019-06-10T23:30:43.691Z,100484.55
2019-06-10T23:33:13.734Z,100495.20
2019-06-10T23:35:43.583Z,100499.77
2019-06-10T23:38:13.473Z,100499.78
2019-06-10T23:40:43.206Z,100503.68
2019-06-10T23:43:13.479Z,100497.33
2019-06-10T23:45:43.021Z,100489.53
2019-06-10T23:48:13.556Z,100482.96
2019-06-10T23:50:43.849Z,100487.89
2019-06-10T23:53:13.664Z,100486.24
2019-06-10T23:55:43.260Z,100488.09
2019-06-10T23:58:13.672Z,100481.42
